CW6115 Weather Reports


Display with metric or nautical units.
time (UTC)temp
F
wind
direction
speed
MPH
gust
MPH
rain 1hr
in
rain 24hr
in
rain mn
in
humidity
%
barometer
mb
20200526130516 65 0.0 0.0 0.00 0.31 0.31 58 1011.8
20200526125016 65 0.0 0.0 0.00 0.31 0.31 59 1011.6
20200526123516 65 0.0 0.0 0.00 0.31 0.31 59 1011.1
20200526122016 65 0.0 0.0 0.00 0.31 0.31 60 1011.2
20200526120516 65 0.0 0.0 0.00 0.31 0.31 61 1011.1
20200526115016 65 0.0 0.0 0.00 0.31 0.31 61 1011.4
20200526113515 65 0.0 0.0 0.00 0.31 0.31 62 1011.4
20200526112016 65 0.0 0.0 0.00 0.31 0.31 62 1011.1
20200526110516 65 0.0 0.0 0.00 0.31 0.31 62 1010.6
20200526105016 65 0.0 0.0 0.00 0.31 0.31 62 1011.2
20200526103515 65 0 2.0 3.0 0.01 0.31 0.31 62 1011.0
20200526102017 65 338 2.0 3.0 0.01 0.31 0.31 62 1011.3
20200526100515 65 0.0 1.0 0.02 0.31 0.31 62 1011.2
20200526095015 65 315 2.0 3.0 0.04 0.31 0.31 62 1011.5
20200526093515 66 203 2.0 3.0 0.06 0.30 0.30 62 1010.6
20200526092015 66 90 3.0 4.0 0.11 0.30 0.30 59 1010.1
20200526090515 66 0.0 0.0 0.15 0.29 0.29 55 1011.8
20200526085015 66 0.0 0.0 0.14 0.27 0.27 52 1012.0
20200526083515 67 0.0 0.0 0.15 0.24 0.24 50 1012.8
20200526082015 67 0.0 0.0 0.19 0.19 0.19 47 1012.6
20200526080515 67 0.0 0.0 0.14 0.14 0.14 45 1012.0
20200526075017 68 0.0 0.0 0.13 0.13 0.13 44 1012.5
20200526073517 68 293 1.0 1.0 0.09 0.09 0.09 41 1013.4
20200526072017 68 270 2.0 4.0 0.00 0.00 0.00 41 1014.0
20200526070517 68 0.0 0.0 0.00 0.00 0.00 42 1012.4
20200526065017 68 0.0 0.0 0.00 0.00 0.00 42 1011.0
20200526063517 68 0.0 0.0 0.00 0.00 0.00 43 1010.9
20200526062016 68 0.0 0.0 0.00 0.00 0.00 42 1010.8
20200526060516 68 0.0 0.0 0.00 0.00 0.00 42 1011.1
20200526055016 69 0.0 0.0 0.00 0.00 0.00 43 1010.8
20200526053516 69 0.0 0.0 0.00 0.00 0.00 47 1010.6
20200526052016 69 0.0 0.0 0.00 0.00 0.00 46 1010.4
20200526050516 69 0.0 0.0 0.00 0.00 0.00 48 1010.3
20200526045015 70 0.0 0.0 0.00 0.00 0.00 50 1010.5
20200526043515 70 0.0 0.0 0.00 0.00 0.00 51 1010.8
20200526042015 70 0.0 0.0 0.00 0.00 0.00 52 1010.8
20200526040515 71 0.0 0.0 0.00 0.00 0.00 52 1010.8
20200526035015 71 0.0 0.0 0.00 0.00 0.00 56 1010.8
20200526033515 71 0.0 0.0 0.00 0.00 0.00 60 1010.4
20200526032015 71 0.0 0.0 0.00 0.00 0.00 64 1010.2
20200526030515 71 0.0 0.0 0.00 0.00 0.00 66 1009.6
20200526025015 72 0.0 0.0 0.00 0.00 0.00 66 1009.6
20200526023515 72 0.0 0.0 0.00 0.00 0.00 67 1009.6
20200526022017 72 0.0 0.0 0.00 0.00 0.00 68 1009.4
20200526020517 72 0.0 0.0 0.00 0.00 0.00 70 1009.3
20200526015017 72 0.0 0.0 0.00 0.00 0.00 71 1009.1
20200526013516 73 0.0 0.0 0.00 0.00 0.00 74 1008.7
20200526012016 73 0.0 0.0 0.00 0.01 0.00 74 1008.5
20200526010516 73 0.0 0.0 0.00 0.01 0.00 75 1008.3
20200526005017 74 0.0 0.0 0.00 0.01 0.00 75 1008.1
20200526003516 74 0.0 0.0 0.00 0.02 0.00 75 1007.8
20200526002016 74 0.0 0.0 0.00 0.02 0.00 75 1007.7
20200526000516 74 0.0 0.0 0.00 0.03 0.00 75 1007.7
20200525235016 75 315 2.0 3.0 0.00 0.04 0.00 73 1007.2
20200525233516 75 315 1.0 2.0 0.00 0.04 0.00 73 1007.6
20200525232016 75 315 2.0 3.0 0.00 0.04 0.00 72 1007.7
20200525230516 76 315 2.0 3.0 0.00 0.04 0.00 70 1007.7
20200525225016 76 0 2.0 3.0 0.00 0.04 0.00 74 1007.6
20200525223516 76 315 2.0 4.0 0.00 0.04 0.00 73 1007.6
20200525222016 76 315 1.0 2.0 0.00 0.04 0.00 72 1007.4
20200525220516 76 338 3.0 4.0 0.00 0.05 0.00 72 1007.5
20200525215016 76 315 3.0 4.0 0.00 0.09 0.00 72 1007.8
20200525213516 76 338 2.0 3.0 0.00 0.21 0.00 74 1008.0
20200525212016 76 338 6.0 9.0 0.00 0.44 0.00 73 1007.8
20200525210516 77 338 3.0 5.0 0.00 0.47 0.00 74 1008.1
20200525205016 77 338 1.0 2.0 0.00 0.48 0.00 74 1008.0
20200525203515 77 315 3.0 4.0 0.00 0.49 0.00 75 1008.0
20200525202015 76 315 4.0 7.0 0.00 0.67 0.00 75 1008.1
20200525200515 77 315 3.0 5.0 0.00 0.83 0.00 73 1008.2
20200525195015 77 248 2.0 3.0 0.00 0.83 0.00 74 1008.1
20200525193515 77 270 2.0 3.0 0.00 0.84 0.00 73 1008.4
20200525192015 76 270 3.0 5.0 0.00 0.90 0.00 75 1008.6
20200525190515 76 270 1.0 2.0 0.00 0.90 0.00 75 1008.4
20200525185015 76 225 3.0 5.0 0.00 0.90 0.00 75 1008.5
20200525183515 76 293 2.0 3.0 0.00 0.90 0.00 75 1008.1
20200525182015 76 315 2.0 3.0 0.00 0.99 0.00 75 1008.0
20200525180515 76 248 2.0 3.0 0.00 1.18 0.00 75 1007.8
20200525175015 76 248 2.0 4.0 0.00 1.18 0.00 75 1007.8
20200525173515 76 248 4.0 8.0 0.00 1.18 0.00 75 1007.7
20200525172015 75 203 1.0 4.0 0.00 1.18 0.00 75 1007.7
20200525170517 75 248 1.0 2.0 0.00 1.18 0.00 74 1007.9
20200525165016 75 248 2.0 3.0 0.00 1.18 0.00 74 1007.9
20200525163517 74 0.0 0.0 0.00 1.18 0.00 71 1007.6
20200525162015 73 0.0 1.0 0.00 1.18 0.00 61 1007.7
20200525160516 72 0.0 1.0 0.00 1.18 0.00 42 1007.3
20200525155017 71 270 1.0 2.0 0.00 1.18 0.00 41 1007.1
20200525153516 70 225 2.0 4.0 0.00 1.18 0.00 41 1007.0
20200525152016 70 248 2.0 3.0 0.00 1.18 0.00 42 1006.8
20200525150516 69 270 1.0 3.0 0.00 1.18 0.00 43 1006.9
20200525145016 69 0.0 0.0 0.00 1.18 0.00 43 1006.7
20200525143516 68 270 1.0 2.0 0.00 1.18 0.00 44 1006.8
20200525142016 68 270 1.0 2.0 0.00 1.18 0.00 44 1006.7
20200525140518 68 0.0 1.0 0.00 1.18 0.00 45 1006.2
20200525135017 67 270 1.0 1.0 0.00 1.18 0.00 45 1006.2
20200525133516 68 248 2.0 3.0 0.00 1.18 0.00 45 1006.2
20200525132017 68 248 4.0 5.0 0.00 1.18 0.00 44 1006.0